Time;durP1;ratioP1;P1;durP2;ratioP2;P2;SDS_P1;SDS_P2;PMS_P1;PMS_P2;Temp;Humidity;BMP_temperature;BMP_pressure;BME280_temperature;BME280_humidity;BME280_pressure;Samples;Min_cycle;Max_cycle;Signal;HPM_P1;HPM_P2
2022/09/27 00:01:01;;;;;;;;;;;13.20;78.80;;;-151.14;100.00;62537.16;4288286;33;19902;-85
2022/09/27 00:03:30;;;;;;;;;;;13.30;79.00;;;-151.14;100.00;62537.16;4264131;33;19909;-85
2022/09/27 00:06:04;;;;;;;;;;;13.30;79.10;;;-151.14;100.00;62537.16;4288075;33;19908;-84
2022/09/27 00:08:35;;;;;;;;;;;13.20;78.80;;;-151.14;100.00;62537.16;4264074;33;20004;-85
2022/09/27 00:11:04;;;;;;;;;;;13.20;78.90;;;-151.14;100.00;62537.16;4287911;33;19908;-85
2022/09/27 00:13:33;;;;;;;;;;;13.30;79.10;;;-151.14;100.00;62537.16;4287952;33;19902;-85
2022/09/27 00:16:04;;;;;;;;;;;13.20;79.00;;;-151.14;100.00;62537.16;4264196;33;20192;-85
2022/09/27 00:18:32;;;;;;;;;;;13.30;79.10;;;-151.14;100.00;62537.16;4287890;33;19902;-84
2022/09/27 00:21:06;;;;;;;;;;;13.30;79.20;;;-151.14;100.00;62537.16;4312120;33;19909;-84
2022/09/27 00:23:36;;;;;;;;;;;13.30;79.10;;;-151.14;100.00;62537.16;4264118;33;20129;-85
2022/09/27 00:26:05;;;;;;;;;;;13.20;79.00;;;-151.14;100.00;62537.16;4287921;33;19985;-84
2022/09/27 00:28:35;;;;;;;;;;;13.30;79.10;;;-151.14;100.00;62537.16;4263894;33;19946;-84
2022/09/27 00:31:04;;;;;;;;;;;13.30;79.20;;;-151.14;100.00;62537.16;4288004;33;19917;-85
2022/09/27 00:33:32;;;;;;;;;;;13.30;79.20;;;-151.14;100.00;62537.16;4287999;33;19999;-85
2022/09/27 00:36:05;;;;;;;;;;;13.20;79.10;;;-151.14;100.00;62537.16;4264152;33;20353;-85
2022/09/27 00:38:36;;;;;;;;;;;13.30;79.20;;;-151.14;100.00;62537.16;4287678;33;20212;-85
2022/09/27 00:41:04;;;;;;;;;;;13.20;79.20;;;-151.14;100.00;62537.16;4259125;33;20228;-84
2022/09/27 00:43:45;;;;;;;;;;;13.20;79.20;;;-151.14;100.00;62537.16;4259124;33;19902;-84
2022/09/27 00:46:16;;;;;;;;;;;13.30;79.30;;;-151.14;100.00;62537.16;4259092;33;20221;-84
2022/09/27 00:48:45;;;;;;;;;;;13.20;79.10;;;-151.14;100.00;62537.16;4258932;33;19932;-85
2022/09/27 00:51:13;;;;;;;;;;;13.30;79.30;;;-151.14;100.00;62537.16;4258977;33;19902;-85
2022/09/27 00:53:47;;;;;;;;;;;13.30;79.30;;;-151.14;100.00;62537.16;4235581;33;20135;-84
2022/09/27 00:56:18;;;;;;;;;;;13.20;79.20;;;-151.14;100.00;62537.16;4282855;33;19902;-85
2022/09/27 00:58:50;;;;;;;;;;;13.30;79.30;;;-151.14;100.00;62537.16;4258862;33;19907;-85
2022/09/27 01:01:19;;;;;;;;;;;13.20;79.30;;;-151.14;100.00;62537.16;4282829;33;19902;-85
2022/09/27 01:03:51;;;;;;;;;;;13.20;79.30;;;-151.14;100.00;62537.16;4235239;33;20241;-84
2022/09/27 01:06:21;;;;;;;;;;;13.20;79.20;;;-151.14;100.00;62537.16;4282828;33;20300;-85
2022/09/27 01:08:51;;;;;;;;;;;13.20;79.20;;;-151.14;100.00;62537.16;4282554;33;20321;-85
2022/09/27 01:11:35;;;;;;;;;;;13.20;79.20;;;-151.14;100.00;62537.16;4258882;33;19997;-85
2022/09/27 01:14:27;;;;;;;;;;;13.20;79.20;;;-151.14;100.00;62537.16;4258886;33;19910;-84
2022/09/27 01:17:00;;;;;;;;;;;13.20;79.30;;;-151.14;100.00;62537.16;4282719;33;20126;-84
2022/09/27 01:19:53;;;;;;;;;;;13.30;79.40;;;-151.14;100.00;62537.16;4259550;33;19991;-85
2022/09/27 01:22:22;;;;;;;;;;;13.30;79.40;;;-151.14;100.00;62537.16;4309452;33;19904;-85
2022/09/27 01:25:08;;;;;;;;;;;13.30;79.50;;;-151.14;100.00;62537.16;4290704;33;19909;-85
2022/09/27 01:28:15;;;;;;;;;;;13.20;79.30;;;-151.14;100.00;62537.16;4289889;33;20247;-85
2022/09/27 01:30:48;;;;;;;;;;;13.30;79.40;;;-151.14;100.00;62537.16;4290093;33;19902;-85
2022/09/27 01:33:31;;;;;;;;;;;13.20;79.40;;;-151.14;100.00;62537.16;4290050;33;20001;-84
2022/09/27 01:36:14;;;;;;;;;;;13.30;79.50;;;-151.14;100.00;62537.16;4265935;33;19902;-85
2022/09/27 01:38:52;;;;;;;;;;;13.30;79.50;;;-151.14;100.00;62537.16;4265751;33;19902;-85
2022/09/27 01:41:28;;;;;;;;;;;13.20;79.40;;;-151.14;100.00;62537.16;4289782;33;19981;-85
2022/09/27 01:44:31;;;;;;;;;;;13.20;79.40;;;-151.14;100.00;62537.16;4265843;33;19909;-85
2022/09/27 01:47:12;;;;;;;;;;;13.30;79.60;;;-151.14;100.00;62537.16;4265791;33;20129;-85
2022/09/27 01:49:53;;;;;;;;;;;13.30;79.50;;;-151.14;100.00;62537.16;4265638;33;19996;-85
2022/09/27 01:52:26;;;;;;;;;;;13.30;79.60;;;-151.14;100.00;62537.16;4313840;33;19901;-85
2022/09/27 01:54:59;;;;;;;;;;;13.30;79.60;;;18.08;100.00;62537.16;4265922;33;19902;-84
2022/09/27 01:57:37;;;;;;;;;;;13.30;79.60;;;-151.14;100.00;62537.16;4289498;33;19902;-85
2022/09/27 02:00:11;;;;;;;;;;;13.20;79.50;;;-151.14;100.00;62537.16;4313907;33;19996;-84
2022/09/27 02:02:47;;;;;;;;;;;13.30;79.60;;;-151.14;100.00;62537.16;4290618;33;19902;-84
2022/09/27 02:05:38;;;;;;;;;;;13.30;79.80;;;-151.14;100.00;62537.16;4289588;33;19901;-84
2022/09/27 02:08:28;;;;;;;;;;;13.30;79.90;;;-151.14;100.00;62537.16;4313365;33;19908;-84
2022/09/27 02:10:59;;;;;;;;;;;13.30;79.70;;;-151.14;100.00;62537.16;4265754;33;19909;-85
2022/09/27 02:13:36;;;;;;;;;;;13.30;79.70;;;-151.14;100.00;62537.16;4313475;33;19901;-85
2022/09/27 02:16:31;;;;;;;;;;;13.30;79.80;;;-151.14;100.00;62537.16;4289359;33;19917;-85
2022/09/27 02:19:13;;;;;;;;;;;13.30;79.80;;;-151.14;100.00;62537.16;4289322;33;19997;-84
2022/09/27 02:21:47;;;;;;;;;;;13.30;79.80;;;-151.14;100.00;62537.16;4265392;33;20133;-85
2022/09/27 02:24:21;;;;;;;;;;;13.30;79.80;;;-151.14;100.00;62537.16;4289285;33;19902;-85
2022/09/27 02:26:56;;;;;;;;;;;13.30;80.00;;;-151.14;100.00;62537.16;4264603;33;19997;-85
2022/09/27 02:29:29;;;;;;;;;;;13.30;80.00;;;-151.14;100.00;62537.16;4288807;33;19902;-85
2022/09/27 02:31:58;;;;;;;;;;;13.30;80.00;;;-151.14;100.00;62537.16;4307608;33;19910;-85
2022/09/27 02:34:29;;;;;;;;;;;13.30;80.00;;;;;;4261133;33;19902;-85
2022/09/27 02:36:58;;;;;;;;;;;13.30;80.00;;;-151.14;100.00;62537.16;4272295;33;19910;-85
2022/09/27 02:39:28;;;;;;;;;;;13.30;80.00;;;-151.14;100.00;62537.16;4236392;33;19903;-85
2022/09/27 02:42:04;;;;;;;;;;;13.30;79.90;;;-151.14;100.00;62537.16;4284422;33;19910;-86
2022/09/27 02:44:33;;;;;;;;;;;13.30;79.90;;;-151.14;100.00;62537.16;4308657;33;19918;-85
2022/09/27 02:47:30;;;;;;;;;;;13.30;80.00;;;-151.14;100.00;62537.16;4236990;33;19902;-85
2022/09/27 02:50:25;;;;;;;;;;;13.30;80.00;;;-151.14;100.00;62537.16;4260408;33;19909;-86
2022/09/27 02:53:00;;;;;;;;;;;13.30;79.90;;;-151.14;100.00;62537.16;4285668;33;20216;-85
2022/09/27 02:55:43;;;;;;;;;;;13.30;80.10;;;-151.14;100.00;62537.16;4337909;32;19902;-85
2022/09/27 02:58:45;;;;;;;;;;;13.30;80.00;;;-151.14;100.00;62537.16;4260026;33;19909;-85
2022/09/27 03:01:44;;;;;;;;;;;13.30;80.10;;;12.78;100.00;62537.16;4236846;33;19906;-85
2022/09/27 03:04:29;;;;;;;;;;;13.30;80.10;;;-151.14;100.00;62537.16;4236664;33;20006;-85
2022/09/27 03:06:59;;;;;;;;;;;13.20;79.90;;;-151.14;100.00;62537.16;4236720;33;20249;-85
2022/09/27 03:09:29;;;;;;;;;;;13.30;80.10;;;-151.14;100.00;62537.16;4236511;33;19966;-85
2022/09/27 03:11:58;;;;;;;;;;;13.30;80.00;;;-151.14;100.00;62537.16;4236897;33;19909;-85
2022/09/27 03:14:27;;;;;;;;;;;13.30;80.00;;;-151.14;100.00;62537.16;4236670;33;19909;-85
2022/09/27 03:17:05;;;;;;;;;;;13.30;80.10;;;-151.14;100.00;62537.16;4236561;33;20002;-85
2022/09/27 03:19:46;;;;;;;;;;;13.30;80.10;;;-151.14;100.00;62537.16;4261099;33;19902;-86
2022/09/27 03:22:39;;;;;;;;;;;13.30;80.10;;;-151.14;100.00;62537.16;4258625;33;19910;-85
2022/09/27 03:25:09;;;;;;;;;;;13.30;80.10;;;-151.14;100.00;62537.16;4236632;33;19903;-85
2022/09/27 03:27:38;;;;;;;;;;;13.30;80.20;;;-151.14;100.00;62537.16;4283697;33;19909;-85
2022/09/27 03:30:07;;;;;;;;;;;13.30;80.10;;;-151.14;100.00;62537.16;4308294;33;20019;-85
2022/09/27 03:32:38;;;;;;;;;;;13.30;80.20;;;-151.14;100.00;62537.16;4236444;33;19997;-85
2022/09/27 03:35:19;;;;;;;;;;;13.30;80.20;;;-151.14;100.00;62537.16;4260047;33;20009;-85
2022/09/27 03:37:49;;;;;;;;;;;13.20;80.00;;;-151.14;100.00;62537.16;4236218;33;19903;-85
2022/09/27 03:40:18;;;;;;;;;;;13.30;80.10;;;-151.14;100.00;62537.16;4284021;33;20002;-86
2022/09/27 03:42:48;;;;;;;;;;;13.30;80.20;;;-151.14;100.00;62537.16;4259583;33;19969;-85
2022/09/27 03:45:17;;;;;;;;;;;13.30;80.10;;;-151.14;100.00;62537.16;4236294;33;19909;-85
2022/09/27 03:47:46;;;;;;;;;;;13.30;80.20;;;-151.14;100.00;62537.16;4236101;33;19902;-86
2022/09/27 03:50:15;;;;;;;;;;;13.30;80.20;;;-151.14;100.00;62537.16;4259881;33;19911;-85
2022/09/27 03:52:44;;;;;;;;;;;13.30;80.30;;;-151.14;100.00;62537.16;4259777;33;19941;-85
2022/09/27 03:55:14;;;;;;;;;;;13.30;80.30;;;-151.14;100.00;62537.16;4259799;33;20326;-85
2022/09/27 03:57:45;;;;;;;;;;;13.30;80.10;;;-151.14;100.00;62537.16;4269082;33;20129;-85
2022/09/27 04:00:15;;;;;;;;;;;13.30;80.20;;;;;;4264661;33;19902;-85
2022/09/27 04:02:44;;;;;;;;;;;13.30;80.20;;;-151.14;100.00;62537.16;4312522;33;19902;-86
2022/09/27 04:05:25;;;;;;;;;;;13.30;80.30;;;-151.14;100.00;62537.16;4288184;33;19917;-85
2022/09/27 04:08:06;;;;;;;;;;;13.30;80.30;;;-151.14;100.00;62537.16;4288232;33;19909;-85
2022/09/27 04:10:37;;;;;;;;;;;13.30;80.30;;;-151.14;100.00;62537.16;4264397;33;20010;-85
2022/09/27 04:13:06;;;;;;;;;;;13.30;80.30;;;-151.14;100.00;62537.16;4312481;33;19913;-85
2022/09/27 04:15:40;;;;;;;;;;;13.30;80.40;;;-151.14;100.00;62537.16;4264419;33;20210;-86
2022/09/27 04:18:27;;;;;;;;;;;13.30;80.30;;;-151.14;100.00;62537.16;4287980;33;19902;-85
2022/09/27 04:21:15;;;;;;;;;;;13.30;80.30;;;-151.14;100.00;62537.16;4264374;33;20229;-86
2022/09/27 04:23:50;;;;;;;;;;;13.30;80.30;;;-151.14;100.00;62537.16;4288125;33;19909;-85
2022/09/27 04:26:23;;;;;;;;;;;13.30;80.30;;;-151.14;100.00;62537.16;4288150;33;19901;-85
2022/09/27 04:29:08;;;;;;;;;;;13.30;80.40;;;-151.14;100.00;62537.16;4287884;33;19901;-86
2022/09/27 04:31:39;;;;;;;;;;;13.30;80.40;;;-151.14;100.00;62537.16;4263711;33;19991;-85
2022/09/27 04:34:11;;;;;;;;;;;13.30;80.50;;;-151.14;100.00;62537.16;4287949;33;20015;-85
2022/09/27 04:36:39;;;;;;;;;;;13.30;80.40;;;-151.14;100.00;62537.16;4264304;33;19952;-86
2022/09/27 04:39:10;;;;;;;;;;;13.30;80.40;;;-151.14;100.00;62537.16;4263928;33;19989;-85
2022/09/27 04:41:43;;;;;;;;;;;13.30;80.40;;;-151.14;100.00;62537.16;4264258;33;19902;-85
2022/09/27 04:44:12;;;;;;;;;;;13.30;80.50;;;-151.14;100.00;62537.16;4264177;33;20236;-86
2022/09/27 04:46:44;;;;;;;;;;;13.30;80.50;;;-151.14;100.00;62537.16;4312077;33;19902;-85
2022/09/27 04:49:14;;;;;;;;;;;13.30;80.50;;;-151.14;100.00;62537.16;4287748;33;19973;-85
2022/09/27 04:51:42;;;;;;;;;;;13.30;80.60;;;18.74;100.00;62537.16;4288017;33;19909;-85
2022/09/27 04:54:11;;;;;;;;;;;13.30;80.50;;;-151.14;100.00;62537.16;4264461;33;19902;-85
2022/09/27 04:56:53;;;;;;;;;;;13.30;80.60;;;-151.14;100.00;62537.16;4290411;33;19915;-86
2022/09/27 04:59:22;;;;;;;;;;;13.30;80.60;;;-151.14;100.00;62537.16;4290076;33;19901;-86
2022/09/27 05:01:52;;;;;;;;;;;13.30;80.60;;;-151.14;100.00;62537.16;4266620;33;19909;-85
2022/09/27 05:04:41;;;;;;;;;;;13.30;80.60;;;-151.14;100.00;62537.16;4275220;33;19908;-86
2022/09/27 05:07:11;;;;;;;;;;;13.30;80.50;;;-151.14;100.00;62537.16;4266421;33;19901;-85
2022/09/27 05:09:45;;;;;;;;;;;13.30;80.60;;;-151.14;100.00;62537.16;4266273;33;19909;-86
2022/09/27 05:12:15;;;;;;;;;;;13.30;80.40;;;-151.14;100.00;62537.16;4290454;33;19902;-85
2022/09/27 05:14:56;;;;;;;;;;;13.30;80.40;;;-151.14;100.00;62537.16;4266290;33;19981;-86
2022/09/27 05:17:54;;;;;;;;;;;13.30;80.40;;;-151.14;100.00;62537.16;4216124;33;19910;-85
2022/09/27 05:20:49;;;;;;;;;;;13.30;80.40;;;-151.14;100.00;62537.16;4268251;33;19902;-85
2022/09/27 05:23:23;;;;;;;;;;;13.30;80.30;;;-151.14;100.00;62537.16;4266380;33;19906;-85
2022/09/27 05:25:54;;;;;;;;;;;13.30;80.40;;;-151.14;100.00;62537.16;4266142;33;20000;-86
2022/09/27 05:28:24;;;;;;;;;;;13.30;80.30;;;187.61;100.00;62537.16;4266115;33;19989;-85
2022/09/27 05:30:53;;;;;;;;;;;13.30;80.30;;;-151.14;100.00;62537.16;4290247;33;19909;-86
2022/09/27 05:33:23;;;;;;;;;;;13.30;80.20;;;-151.14;100.00;62537.16;4290177;33;19981;-85
2022/09/27 05:36:15;;;;;;;;;;;13.30;80.10;;;-151.14;100.00;62537.16;4286917;33;19909;-85
2022/09/27 05:38:44;;;;;;;;;;;13.30;80.20;;;-151.14;100.00;62537.16;4290111;33;19944;-85
2022/09/27 05:41:13;;;;;;;;;;;13.30;80.10;;;-151.14;100.00;62537.16;4289986;33;19902;-84
2022/09/27 05:43:44;;;;;;;;;;;13.30;80.10;;;-151.14;100.00;62537.16;4266001;33;19909;-85
2022/09/27 05:46:13;;;;;;;;;;;13.30;80.00;;;-151.14;100.00;62537.16;4266003;33;20236;-86
2022/09/27 05:48:44;;;;;;;;;;;13.30;79.90;;;-151.14;100.00;62537.16;4265841;33;20229;-85
2022/09/27 05:51:13;;;;;;;;;;;13.40;79.90;;;-151.14;100.00;62537.16;4265882;33;19902;-86
2022/09/27 05:53:42;;;;;;;;;;;13.40;79.80;;;-151.14;100.00;62537.16;4289844;33;20129;-85
2022/09/27 05:56:30;;;;;;;;;;;13.40;79.80;;;-151.14;100.00;62537.16;4289806;33;19909;-85
2022/09/27 05:59:23;;;;;;;;;;;13.40;79.80;;;-151.14;100.00;62537.16;4265636;33;19902;-85
2022/09/27 06:02:34;;;;;;;;;;;13.40;79.80;;;-151.14;100.00;62537.16;4208519;33;19927;-85
2022/09/27 06:05:21;;;;;;;;;;;13.40;79.70;;;-151.14;100.00;62537.16;4208337;33;20007;-86
2022/09/27 06:08:22;;;;;;;;;;;13.40;79.80;;;-151.14;100.00;62537.16;4266618;33;19909;-85
2022/09/27 06:11:01;;;;;;;;;;;13.40;80.60;;;-151.14;100.00;62537.16;4265692;33;19902;-86
2022/09/27 06:13:30;;;;;;;;;;;13.40;79.70;;;-151.14;100.00;62537.16;4313844;33;19910;-85
2022/09/27 06:16:00;;;;;;;;;;;13.40;79.70;;;-151.14;100.00;62537.16;4265637;33;20214;-86
2022/09/27 06:18:29;;;;;;;;;;;13.40;79.70;;;-151.14;100.00;62537.16;4265574;33;19925;-85
2022/09/27 06:20:59;;;;;;;;;;;13.40;79.80;;;187.61;100.00;62537.16;4265452;33;19901;-86
2022/09/27 06:23:28;;;;;;;;;;;13.40;79.70;;;-151.14;100.00;62537.16;4265745;33;19909;-85
2022/09/27 06:26:01;;;;;;;;;;;13.40;79.70;;;-151.14;100.00;62537.16;4265625;33;20009;-86
2022/09/27 06:28:42;;;;;;;;;;;13.40;79.60;;;-151.14;100.00;62537.16;4265443;33;19980;-85
2022/09/27 06:31:13;;;;;;;;;;;13.40;79.60;;;-151.14;100.00;62537.16;4289441;33;19902;-86
2022/09/27 06:33:49;;;;;;;;;;;13.40;79.50;;;-151.14;100.00;62537.16;4289558;33;20304;-85
2022/09/27 06:36:18;;;;;;;;;;;13.40;79.50;;;-151.14;100.00;62537.16;4265358;33;19909;-86
2022/09/27 06:38:48;;;;;;;;;;;13.40;79.60;;;-151.14;100.00;62537.16;4289262;33;19902;-86
2022/09/27 06:41:28;;;;;;;;;;;13.40;79.60;;;-151.14;100.00;62537.16;4265299;33;19902;-86
2022/09/27 06:44:07;;;;;;;;;;;13.40;79.50;;;-151.14;100.00;62537.16;4265438;33;19908;-86
2022/09/27 06:46:38;;;;;;;;;;;13.40;79.60;;;-151.14;100.00;62537.16;4289017;33;19902;-86
2022/09/27 06:49:13;;;;;;;;;;;13.40;79.50;;;18.08;100.00;62537.16;4289152;33;20055;-85
2022/09/27 06:51:43;;;;;;;;;;;13.40;79.60;;;-151.14;100.00;62537.16;4265321;33;20130;-86
2022/09/27 06:54:11;;;;;;;;;;;13.40;79.60;;;-151.14;100.00;62537.16;4313516;33;20240;-85
2022/09/27 06:56:40;;;;;;;;;;;13.40;79.60;;;-151.14;100.00;62537.16;4265090;33;19906;-85
2022/09/27 07:02:15;;;;;;;;;;;13.40;79.50;;;-151.14;100.00;62537.16;4289170;33;19909;-86
2022/09/27 07:05:10;;;;;;;;;;;13.50;79.50;;;-151.14;100.00;62537.16;4256653;33;19908;-86
2022/09/27 07:08:05;;;;;;;;;;;13.50;79.60;;;12.78;100.00;62537.16;4279307;33;20130;-86
2022/09/27 07:10:36;;;;;;;;;;;13.50;79.70;;;-151.14;100.00;62537.16;4337633;32;19995;-86
2022/09/27 07:13:06;;;;;;;;;;;13.50;79.60;;;-151.14;100.00;62537.16;4313392;33;19908;-86
2022/09/27 07:15:36;;;;;;;;;;;13.50;79.70;;;187.61;100.00;62537.16;4265053;33;20231;-86
2022/09/27 07:18:09;;;;;;;;;;;13.50;79.70;;;187.61;100.00;62537.16;4264406;33;20013;-86
2022/09/27 07:20:37;;;;;;;;;;;13.50;79.60;;;-151.14;100.00;62537.16;4289048;33;19963;-85
2022/09/27 07:23:06;;;;;;;;;;;13.50;79.60;;;-151.14;100.00;62537.16;4265026;33;19902;-85
2022/09/27 07:25:35;;;;;;;;;;;13.50;79.60;;;-151.14;100.00;62537.16;4264842;33;19902;-86
2022/09/27 07:28:04;;;;;;;;;;;13.50;79.60;;;-151.14;100.00;62537.16;4264620;33;20221;-86
2022/09/27 07:30:34;;;;;;;;;;;13.50;79.70;;;-151.14;100.00;62537.16;4264869;33;19902;-86
2022/09/27 07:33:04;;;;;;;;;;;13.50;79.60;;;-151.14;100.00;62537.16;4264909;33;19980;-86
2022/09/27 07:35:35;;;;;;;;;;;13.50;79.60;;;-151.14;100.00;62537.16;4288852;33;20233;-86
2022/09/27 07:38:04;;;;;;;;;;;13.50;79.60;;;-151.14;100.00;62537.16;4312582;33;19901;-86
2022/09/27 07:40:33;;;;;;;;;;;13.50;79.60;;;-151.14;100.00;62537.16;4337456;32;20000;-85
2022/09/27 07:43:02;;;;;;;;;;;13.50;79.60;;;-151.14;100.00;62537.16;4264864;33;19959;-86
2022/09/27 07:45:31;;;;;;;;;;;13.50;79.70;;;;;;4264616;33;19902;-85
2022/09/27 07:48:24;;;;;;;;;;;13.50;79.60;;;187.61;100.00;62537.16;4236209;33;19909;-86
2022/09/27 07:51:12;;;;;;;;;;;13.50;79.50;;;-151.14;100.00;62537.16;4259677;33;19983;-85
2022/09/27 07:53:45;;;;;;;;;;;13.50;79.50;;;-151.14;100.00;62537.16;4236190;33;19994;-85
2022/09/27 07:56:32;;;;;;;;;;;13.60;79.40;;;12.78;100.00;62537.16;4259797;33;20005;-86
2022/09/27 07:59:01;;;;;;;;;;;13.60;79.30;;;-151.14;100.00;62537.16;4235956;33;19910;-86
2022/09/27 08:01:33;;;;;;;;;;;13.60;79.20;;;-151.14;100.00;62537.16;4259765;33;19986;-86
2022/09/27 08:04:02;;;;;;;;;;;13.60;79.40;;;-151.14;100.00;62537.16;4236058;33;19909;-86
2022/09/27 08:06:32;;;;;;;;;;;13.60;79.20;;;-151.14;100.00;62537.16;4236065;33;19902;-86
2022/09/27 08:09:02;;;;;;;;;;;13.60;79.20;;;-151.14;100.00;62537.16;4259368;33;19994;-85
2022/09/27 08:11:32;;;;;;;;;;;13.70;79.00;;;-151.14;100.00;62537.16;4236122;33;19903;-86
2022/09/27 08:14:03;;;;;;;;;;;13.70;78.90;;;-151.14;100.00;62537.16;4259808;33;20122;-86
2022/09/27 08:16:33;;;;;;;;;;;13.70;78.80;;;-151.14;100.00;62537.16;4239785;33;19931;-86
2022/09/27 08:19:22;;;;;;;;;;;13.70;78.80;;;-151.14;100.00;62537.16;4245102;33;20242;-86
2022/09/27 08:22:02;;;;;;;;;;;13.70;78.70;;;-151.14;100.00;62537.16;4288132;33;19901;-86
2022/09/27 08:24:43;;;;;;;;;;;13.70;78.80;;;-151.14;100.00;62537.16;4264582;33;19985;-85
2022/09/27 08:27:27;;;;;;;;;;;13.70;78.70;;;-151.14;100.00;62537.16;4288100;33;20008;-86
2022/09/27 08:30:02;;;;;;;;;;;13.70;78.60;;;-151.14;100.00;62537.16;4264525;33;19993;-85
2022/09/27 08:32:31;;;;;;;;;;;13.70;78.60;;;-151.14;100.00;62537.16;4264579;33;19909;-86
2022/09/27 08:35:02;;;;;;;;;;;13.70;78.60;;;-151.14;100.00;62537.16;4264344;33;20107;-86
2022/09/27 08:37:33;;;;;;;;;;;13.70;78.60;;;-151.14;100.00;62537.16;4263959;33;19985;-86
2022/09/27 08:40:02;;;;;;;;;;;13.70;78.60;;;-151.14;100.00;62537.16;4264254;33;20015;-86
2022/09/27 08:42:38;;;;;;;;;;;13.70;78.60;;;12.78;100.00;62537.16;4312212;33;19956;-86
2022/09/27 08:45:12;;;;;;;;;;;13.70;78.60;;;-151.14;100.00;62537.16;4264001;33;19997;-86
2022/09/27 08:47:43;;;;;;;;;;;13.70;78.60;;;-151.14;100.00;62537.16;4263812;33;20255;-86
2022/09/27 08:50:23;;;;;;;;;;;13.70;78.60;;;-151.14;100.00;62537.16;4264031;33;19902;-86
2022/09/27 08:52:56;;;;;;;;;;;13.80;78.50;;;14.11;100.00;62537.16;4263987;33;19902;-86
2022/09/27 08:55:31;;;;;;;;;;;13.80;78.50;;;-151.14;100.00;62537.16;4263872;33;20004;-86
2022/09/27 08:58:00;;;;;;;;;;;13.80;78.40;;;-151.14;100.00;62537.16;4263716;33;20296;-86
2022/09/27 09:00:29;;;;;;;;;;;13.80;78.40;;;-151.14;100.00;62537.16;4263979;33;19902;-86
2022/09/27 09:03:00;;;;;;;;;;;13.80;78.30;;;-151.14;100.00;62537.16;4263744;33;20299;-86
2022/09/27 09:05:32;;;;;;;;;;;13.90;78.40;;;-151.14;100.00;62537.16;4263968;33;19901;-86
2022/09/27 09:08:27;;;;;;;;;;;13.90;78.30;;;-151.14;100.00;62537.16;4263542;33;19909;-86
2022/09/27 09:14:27;;;;;;;;;;;13.90;78.10;;;-151.14;100.00;62537.16;4287683;33;19975;-86
2022/09/27 09:17:03;;;;;;;;;;;13.90;78.10;;;-151.14;100.00;62537.16;4273133;33;20161;-86
2022/09/27 09:19:57;;;;;;;;;;;13.90;78.10;;;-151.14;100.00;62537.16;4263794;33;19918;-86
2022/09/27 09:22:49;;;;;;;;;;;14.00;78.00;;;-151.14;100.00;62537.16;4263658;33;20026;-86
2022/09/27 09:25:24;;;;;;;;;;;14.00;78.00;;;-151.14;100.00;62537.16;4264030;33;20228;-86
2022/09/27 09:28:02;;;;;;;;;;;14.00;78.00;;;-151.14;100.00;62537.16;4263301;33;19902;-86
2022/09/27 09:30:36;;;;;;;;;;;14.00;77.90;;;-151.14;100.00;62537.16;4263695;33;19902;-86
2022/09/27 09:33:18;;;;;;;;;;;14.00;77.90;;;-151.14;100.00;62537.16;4263670;33;20000;-86
2022/09/27 09:35:50;;;;;;;;;;;14.00;77.90;;;-151.14;100.00;62537.16;4263234;33;19986;-86
2022/09/27 09:38:21;;;;;;;;;;;14.00;78.00;;;-151.14;100.00;62537.16;4263433;33;19901;-86
2022/09/27 09:40:56;;;;;;;;;;;14.00;78.00;;;-151.14;100.00;62537.16;4288692;33;19909;-86
2022/09/27 09:43:29;;;;;;;;;;;14.00;77.80;;;-151.14;100.00;62537.16;4265938;33;20011;-86
2022/09/27 09:46:02;;;;;;;;;;;14.00;77.80;;;-151.14;100.00;62537.16;4266014;33;19906;-86
2022/09/27 09:48:36;;;;;;;;;;;14.00;77.70;;;-151.14;100.00;62537.16;4265196;33;19902;-86
2022/09/27 09:51:09;;;;;;;;;;;14.00;77.70;;;-151.14;100.00;62537.16;4289959;33;19992;-86
2022/09/27 09:53:41;;;;;;;;;;;14.00;77.60;;;-151.14;100.00;62537.16;4289863;33;19980;-86
2022/09/27 09:56:15;;;;;;;;;;;14.00;77.60;;;-151.14;100.00;62537.16;4266126;33;19924;-86
2022/09/27 09:58:47;;;;;;;;;;;14.10;77.80;;;-151.14;100.00;62537.16;4289658;33;19966;-86
2022/09/27 10:01:20;;;;;;;;;;;14.10;77.70;;;-151.14;100.00;62537.16;4266051;33;19909;-86
2022/09/27 10:03:49;;;;;;;;;;;14.00;77.60;;;-151.14;100.00;62537.16;4265533;33;19901;-86
2022/09/27 10:06:18;;;;;;;;;;;14.00;77.60;;;-151.14;100.00;62537.16;4265947;33;19909;-86
2022/09/27 10:08:52;;;;;;;;;;;14.00;77.60;;;13.12;100.00;82925.16;4265523;33;19936;-86
2022/09/27 10:11:36;;;;;;;;;;;14.00;77.50;;;18.08;100.00;62537.16;4265797;33;19902;-86
2022/09/27 10:14:26;;;;;;;;;;;14.10;77.70;;;-151.14;100.00;62537.16;4289228;33;20114;-86
2022/09/27 10:16:59;;;;;;;;;;;14.10;77.70;;;-151.14;100.00;62537.16;4289670;33;20001;-86
2022/09/27 10:19:30;;;;;;;;;;;14.00;77.50;;;-151.14;100.00;62537.16;4265387;33;19909;-85
2022/09/27 10:22:02;;;;;;;;;;;14.10;77.60;;;-151.14;100.00;62537.16;4265920;33;19901;-86
2022/09/27 10:24:38;;;;;;;;;;;14.10;77.50;;;-151.14;100.00;62537.16;4265479;33;19902;-86
2022/09/27 10:27:11;;;;;;;;;;;14.10;77.60;;;-151.14;100.00;62537.16;4265510;33;20415;-86
2022/09/27 10:29:41;;;;;;;;;;;14.10;77.60;;;-151.14;100.00;62537.16;4265374;33;19986;-86
2022/09/27 10:32:23;;;;;;;;;;;14.10;77.60;;;-151.14;100.00;62537.16;4265574;33;19909;-86
2022/09/27 10:34:56;;;;;;;;;;;14.10;77.50;;;-151.14;100.00;62537.16;4265582;33;19904;-86
2022/09/27 10:37:25;;;;;;;;;;;14.10;77.50;;;-151.14;100.00;62537.16;4289354;33;19913;-86
2022/09/27 10:40:28;;;;;;;;;;;14.10;77.60;;;-151.14;100.00;62537.16;4288972;33;19902;-86
2022/09/27 10:43:00;;;;;;;;;;;14.10;77.50;;;-151.14;100.00;62537.16;4265447;33;19982;-86
2022/09/27 10:45:45;;;;;;;;;;;14.10;77.60;;;-151.14;100.00;62537.16;4265281;33;19909;-86
2022/09/27 10:48:21;;;;;;;;;;;14.00;77.50;;;-151.14;100.00;62537.16;4265178;33;19909;-86
2022/09/27 10:50:58;;;;;;;;;;;14.00;78.40;;;-151.14;100.00;62537.16;4289434;33;20008;-86
2022/09/27 10:53:36;;;;;;;;;;;14.00;77.50;;;-151.14;100.00;62537.16;4288555;33;19909;-86
2022/09/27 10:56:21;;;;;;;;;;;14.00;77.50;;;-151.14;100.00;62537.16;4265329;33;19934;-85
2022/09/27 10:58:51;;;;;;;;;;;14.00;77.50;;;-151.14;100.00;62537.16;4265158;33;19902;-86
2022/09/27 11:01:21;;;;;;;;;;;14.00;77.50;;;-151.14;100.00;62537.16;4265191;33;19902;-86
2022/09/27 11:04:24;;;;;;;;;;;14.00;77.50;;;-151.14;100.00;62537.16;4288852;33;19972;-86
2022/09/27 11:06:53;;;;;;;;;;;14.00;77.50;;;-151.14;100.00;62537.16;4265050;33;19902;-86
2022/09/27 11:09:25;;;;;;;;;;;14.00;77.50;;;-151.14;100.00;62537.16;4264740;33;19977;-86
2022/09/27 11:12:11;;;;;;;;;;;14.10;77.60;;;-151.14;100.00;62537.16;4265110;33;19902;-86
2022/09/27 11:14:42;;;;;;;;;;;14.10;77.60;;;13.10;100.00;62537.16;4288605;33;19901;-85
2022/09/27 11:17:16;;;;;;;;;;;14.10;77.50;;;-151.14;100.00;62537.16;4264951;33;20186;-86
2022/09/27 11:20:15;;;;;;;;;;;14.10;77.60;;;-151.14;100.00;62537.16;4264695;33;23609;-86
2022/09/27 11:23:24;;;;;;;;;;;14.10;77.60;;;13.11;100.00;62537.16;4313079;33;19909;-85
2022/09/27 11:26:09;;;;;;;;;;;14.10;77.60;;;13.09;100.00;62537.16;4264834;33;19902;-85
2022/09/27 11:28:48;;;;;;;;;;;14.00;77.50;;;-151.14;100.00;62537.16;4264728;33;19901;-86
2022/09/27 11:31:45;;;;;;;;;;;14.00;77.50;;;-151.14;100.00;62537.16;4264752;33;20228;-86
2022/09/27 11:34:37;;;;;;;;;;;14.00;77.50;;;-151.14;100.00;62537.16;4264774;33;19924;-86
2022/09/27 11:37:15;;;;;;;;;;;14.00;77.60;;;13.10;100.00;62537.16;4264755;33;19902;-86
2022/09/27 11:40:01;;;;;;;;;;;14.10;77.60;;;-151.14;100.00;62537.16;4312397;33;20133;-85
2022/09/27 11:43:10;;;;;;;;;;;14.10;77.60;;;-151.14;100.00;62537.16;4264802;33;20001;-86